Last 24 Hours

Thomas Mountain

10 Minute Data | America/Los_Angeles
as of 9/6/26 6:26 AM PDT
Date & Time Temp (°F) Dew Pt (°F) RH (%) Wind Spd (mph) Wind Dir (°) Wind Gust (mph) Wind Gst Dir (°) Daily Max Temp (°F) Daily Min Temp (°F)
9/6/26 - 0620 62.3 58.5 87 7.3 NNE | 15 10.2 NNE | 23 67.1 60.0
9/6/26 - 0610 62.0 58.6 89 7.8 NNE | 19 10.2 NNE | 18 67.1 60.0
9/6/26 - 0600 62.4 58.6 88 5.8 NNE | 13 8.6 NNE | 23 67.1 60.0
9/6/26 - 0550 62.2 58.7 88 6.0 N | 0 8.6 N | 2 67.1 60.0
9/6/26 - 0540 61.7 59.1 91 6.4 N | 11 9.4 N | 1 67.1 60.0
9/6/26 - 0530 61.5 59.3 92 7.0 N | 11 9.6 N | 11 67.1 60.0
9/6/26 - 0520 61.0 59.3 94 7.0 N | 11 11.0 N | 1 67.1 60.0
9/6/26 - 0510 60.5 59.2 95 8.2 N | 9 11.4 N | 354 67.1 60.0
9/6/26 - 0500 60.1 58.6 95 8.5 N | 11 12.1 N | 3 67.1 60.0
9/6/26 - 0450 60.1 58.0 93 8.9 N | 9 13.3 N | 5 67.1 60.0
9/6/26 - 0440 61.4 57.6 87 9.3 NNE | 15 14.0 NNE | 17 67.1 60.3
9/6/26 - 0430 63.7 58.9 84 6.6 N | 353 10.2 NNE | 27 67.1 62.9
9/6/26 - 0420 64.3 59.1 83 6.9 WNW | 287 10.8 WNW | 291 67.1 62.9
9/6/26 - 0410 64.2 58.4 82 6.0 W | 276 8.9 WNW | 283 67.1 62.9
9/6/26 - 0400 64.3 57.1 77 6.4 W | 264 10.7 W | 264 67.1 62.9
9/6/26 - 0350 64.3 55.6 73 7.0 W | 272 9.9 W | 268 67.1 62.9
9/6/26 - 0340 64.2 55.9 74 4.3 WNW | 288 8.8 WSW | 258 67.1 62.9
9/6/26 - 0330 64.5 56.0 74 3.8 NW | 306 6.9 WNW | 289 67.1 62.9
9/6/26 - 0320 64.8 56.0 73 4.3 NW | 314 8.5 WNW | 285 67.1 62.9
9/6/26 - 0310 65.2 55.9 72 5.3 NW | 318 12.1 NNW | 329 67.1 62.9
9/6/26 - 0300 65.0 57.2 76 4.2 NW | 310 9.0 W | 281 67.1 62.9
9/6/26 - 0250 64.8 57.5 77 5.3 NW | 322 8.3 NNW | 330 67.1 62.9
9/6/26 - 0240 64.0 59.2 84 5.3 NNW | 340 8.1 NNW | 342 67.1 62.9
9/6/26 - 0230 63.5 59.3 86 6.6 N | 359 8.9 N | 5 67.1 62.9
9/6/26 - 0220 63.5 57.1 80 6.6 N | 7 8.7 N | 2 67.1 63.0
9/6/26 - 0210 65.1 58.7 80 5.8 NNW | 344 7.5 NW | 325 67.1 64.5
9/6/26 - 0200 64.8 55.8 72 5.1 NW | 314 7.6 NW | 307 67.1 64.5
9/6/26 - 0150 64.9 54.7 69 3.6 W | 264 5.2 WSW | 256 67.1 64.6
9/6/26 - 0140 66.7 57.1 71 4.6 WSW | 257 6.4 W | 267 67.1 65.1
9/6/26 - 0130 67.0 57.3 71 4.2 NW | 308 6.4 WNW | 300 67.1 65.1
9/6/26 - 0120 66.6 56.5 70 3.7 NW | 320 5.2 NW | 307 67.0 65.1
9/6/26 - 0110 65.6 53.7 65 3.3 NW | 310 5.0 NW | 309 66.2 65.1
9/6/26 - 0100 65.1 51.2 61 3.8 W | 269 4.7 W | 269 76.5 60.1
9/6/26 - 0050 65.3 51.5 61 3.7 WSW | 247 4.7 WSW | 249 76.5 60.1
9/6/26 - 0040 66.2 52.8 62 3.8 SW | 234 5.6 SW | 236 76.5 60.1
9/6/26 - 0030 66.0 52.4 61 0.4 NW | 311 1.6 NW | 326 76.5 60.1
9/6/26 - 0020 66.7 53.2 62 1.8 SW | 219 3.1 SSW | 200 76.5 60.1
9/6/26 - 0010 66.8 53.9 63 1.9 SSW | 209 3.1 SSW | 205 76.5 60.1
9/6/26 - 0000 66.4 52.8 62 1.5 N | 350 4.5 N | 4 76.5 60.1
9/5/26 - 2350 66.2 51.8 60 4.1 N | 8 6.6 NNE | 20 76.5 60.1
9/5/26 - 2340 66.5 52.2 60 4.4 N | 358 6.7 NNW | 347 76.5 60.1
9/5/26 - 2330 66.2 51.4 59 5.3 NNW | 337 8.8 N | 352 76.5 60.1
9/5/26 - 2320 66.0 51.0 58 5.7 N | 9 7.4 N | 7 76.5 60.1
9/5/26 - 2310 66.0 50.8 58 3.9 NNE | 25 5.4 NNE | 15 76.5 60.1
9/5/26 - 2300 66.2 50.8 58 2.6 NE | 54 4.5 NE | 50 76.5 60.1
9/5/26 - 2250 66.1 50.8 58 0.6 ENE | 67 1.8 ENE | 78 76.5 60.1
9/5/26 - 2240 66.3 50.8 57 0.7 WSW | 240 1.5 WSW | 246 76.5 60.1
9/5/26 - 2230 66.6 50.9 57 2.7 WSW | 242 5.3 WSW | 238 76.5 60.1
9/5/26 - 2220 66.4 51.1 58 3.0 W | 263 4.8 SW | 234 76.5 60.1
9/5/26 - 2210 65.9 50.8 58 4.7 N | 353 6.6 N | 0 76.5 60.1
9/5/26 - 2200 66.1 50.6 57 5.5 N | 9 9.2 NNE | 19 76.5 60.1
9/5/26 - 2150 66.7 50.8 57 2.7 N | 350 4.2 NNW | 329 76.5 60.1
9/5/26 - 2140 66.3 50.5 57 3.6 NNW | 331 5.8 N | 350 76.5 60.1
9/5/26 - 2130 66.4 50.5 57 4.5 N | 356 6.8 N | 7 76.5 60.1
9/5/26 - 2120 67.0 50.9 56 3.0 N | 1 5.2 NNW | 344 76.5 60.1
9/5/26 - 2110 67.1 51.0 56 2.6 WNW | 299 5.6 W | 275 76.5 60.1
9/5/26 - 2100 67.1 50.9 56 2.7 W | 270 4.9 W | 261 76.5 60.1
9/5/26 - 2050 67.2 51.0 56 3.7 WSW | 248 8.8 W | 279 76.5 60.1
9/5/26 - 2040 67.6 51.6 56 7.5 WSW | 246 11.8 WSW | 242 76.5 60.1
9/5/26 - 2030 67.9 52.7 58 7.3 W | 262 14.0 WSW | 249 76.5 60.1
9/5/26 - 2020 68.1 53.8 60 7.4 W | 273 12.4 WNW | 284 76.5 60.1
9/5/26 - 2010 68.1 54.0 61 9.8 W | 274 18.7 W | 260 76.5 60.1
9/5/26 - 2000 68.1 52.5 57 7.9 W | 274 15.3 W | 264 76.5 60.1
9/5/26 - 1950 68.2 52.1 56 5.5 W | 266 11.8 WNW | 284 76.5 60.1
9/5/26 - 1940 68.5 51.7 55 7.7 W | 266 12.9 WNW | 283 76.5 60.1
9/5/26 - 1930 68.8 51.5 54 7.1 WSW | 254 11.8 WSW | 253 76.5 60.1
9/5/26 - 1920 69.1 51.3 53 6.8 W | 261 13.4 WSW | 253 76.5 60.1
9/5/26 - 1910 69.6 51.3 52 7.4 WSW | 256 11.8 WSW | 251 76.5 60.1
9/5/26 - 1900 70.2 51.3 51 7.2 W | 280 12.9 W | 276 76.5 60.1
9/5/26 - 1850 70.9 51.3 50 6.5 W | 275 11.5 WNW | 287 76.5 60.1
9/5/26 - 1840 71.4 51.6 49 7.4 W | 269 13.7 WNW | 291 76.5 60.1
9/5/26 - 1830 72.0 52.0 49 7.9 W | 266 14.1 W | 272 76.5 60.1
9/5/26 - 1820 72.1 52.0 49 11.2 WSW | 252 18.0 WSW | 252 76.5 60.1
9/5/26 - 1810 72.4 52.0 49 12.9 WSW | 253 22.2 WSW | 254 76.5 60.1
9/5/26 - 1800 72.9 51.9 48 12.1 WSW | 252 19.9 WSW | 243 76.5 60.1
9/5/26 - 1750 73.4 52.3 48 11.6 W | 264 19.6 W | 264 76.5 60.1
9/5/26 - 1740 73.8 52.3 47 11.0 W | 265 20.3 WNW | 290 76.5 60.1
9/5/26 - 1730 73.8 51.9 46 10.9 W | 260 19.1 W | 268 76.5 60.1
9/5/26 - 1720 74.2 51.5 45 9.8 WSW | 257 18.6 W | 264 76.5 60.1
9/5/26 - 1710 74.2 51.4 45 13.0 WSW | 251 21.9 SW | 227 76.5 60.1
9/5/26 - 1700 75.1 51.0 43 12.6 WSW | 249 19.5 WSW | 242 76.5 60.1
9/5/26 - 1650 74.9 50.8 43 10.5 WSW | 254 21.6 W | 273 76.5 60.1
9/5/26 - 1640 75.3 50.6 42 13.2 WSW | 240 21.8 SW | 233 76.5 60.1
9/5/26 - 1630 75.1 50.4 42 14.9 WSW | 244 25.8 WSW | 248 76.5 60.1
9/5/26 - 1620 74.6 50.5 43 13.8 WSW | 245 22.1 WSW | 250 76.5 60.1
9/5/26 - 1610 73.7 50.5 44 12.6 WSW | 249 18.6 WSW | 244 76.5 60.1
9/5/26 - 1600 73.4 50.7 45 15.2 WSW | 246 21.8 WSW | 238 76.5 60.1
9/5/26 - 1550 73.4 51.2 46 15.0 WSW | 242 22.1 WSW | 243 76.5 60.1
9/5/26 - 1540 73.8 50.7 44 14.1 WSW | 241 23.9 WSW | 242 76.5 60.1
9/5/26 - 1530 74.6 50.6 43 13.9 WSW | 239 20.9 SW | 235 76.5 60.1
9/5/26 - 1520 74.1 50.6 44 12.5 WSW | 242 22.0 WSW | 242 76.5 60.1
9/5/26 - 1510 73.9 50.0 43 14.8 WSW | 238 22.9 WSW | 247 76.5 60.1
9/5/26 - 1500 74.0 49.8 43 12.2 WSW | 241 22.7 WSW | 244 76.5 60.1
9/5/26 - 1450 73.8 49.9 43 11.5 WSW | 248 19.8 WSW | 253 76.5 60.1
9/5/26 - 1440 74.0 49.5 42 14.0 WSW | 246 23.7 WSW | 244 76.5 60.1
9/5/26 - 1430 74.2 49.8 42 13.6 WSW | 241 19.9 WSW | 246 76.5 60.1
9/5/26 - 1420 73.6 48.6 41 13.4 WSW | 244 20.2 WSW | 239 76.5 60.1
9/5/26 - 1410 74.2 48.6 40 14.2 WSW | 239 22.4 WSW | 239 76.5 60.1
9/5/26 - 1400 74.6 48.6 40 14.3 WSW | 239 22.6 WSW | 249 76.5 60.1
9/5/26 - 1350 74.1 49.1 41 13.5 SW | 234 19.7 WSW | 240 76.5 60.1
9/5/26 - 1340 74.1 49.1 41 14.9 WSW | 240 20.2 WSW | 248 76.5 60.1
9/5/26 - 1330 74.8 49.3 41 14.6 WSW | 240 24.3 WSW | 240 76.5 60.1
9/5/26 - 1320 74.6 49.5 41 14.9 SW | 235 24.3 WSW | 245 76.5 60.1
9/5/26 - 1310 74.5 49.0 41 15.7 WSW | 244 24.4 WSW | 244 76.5 60.1
9/5/26 - 1300 75.3 45.9 35 15.3 WSW | 244 24.2 WSW | 239 76.5 60.1
9/5/26 - 1250 75.4 44.5 33 15.1 WSW | 242 23.2 WSW | 244 76.5 60.1
9/5/26 - 1240 75.5 42.7 31 12.2 WSW | 240 22.4 WSW | 240 76.5 60.1
9/5/26 - 1230 74.0 41.4 31 13.1 WSW | 243 20.2 WSW | 244 75.5 60.1
9/5/26 - 1220 74.1 40.8 30 13.2 WSW | 248 19.0 WSW | 248 75.5 60.1
9/5/26 - 1210 74.5 42.0 31 15.0 WSW | 246 20.2 SW | 230 75.5 60.1
9/5/26 - 1200 73.9 41.9 32 16.4 WSW | 244 22.9 WSW | 242 75.5 60.1
9/5/26 - 1150 74.8 42.4 31 13.1 WSW | 245 22.4 WSW | 248 75.5 60.1
9/5/26 - 1140 74.7 41.5 30 13.6 WSW | 241 22.0 WSW | 248 75.1 60.1
9/5/26 - 1130 73.7 41.3 31 10.5 WSW | 246 20.1 SSW | 210 74.6 60.1
9/5/26 - 1120 73.2 41.4 32 11.2 WSW | 247 17.2 WSW | 240 74.2 60.1
9/5/26 - 1110 72.1 41.9 34 10.9 WSW | 247 17.4 WSW | 245 73.1 60.1
9/5/26 - 1100 72.4 40.4 31 10.5 WSW | 237 17.6 W | 261 73.1 60.1
9/5/26 - 1050 71.9 39.6 31 12.7 WSW | 244 20.0 WSW | 258 72.8 60.1
9/5/26 - 1040 71.7 37.0 28 11.5 WSW | 246 17.2 WSW | 252 72.8 60.1
9/5/26 - 1030 71.5 35.2 26 9.7 WSW | 244 15.9 WSW | 243 72.8 60.1
9/5/26 - 1020 72.0 33.1 24 8.2 SW | 226 13.5 SW | 214 72.8 60.1
9/5/26 - 1010 71.5 31.1 22 9.4 SW | 236 15.0 SSW | 209 72.3 60.1
9/5/26 - 1000 70.5 33.2 25 11.0 WSW | 246 17.2 WSW | 242 72.2 60.1
9/5/26 - 0950 71.2 27.3 20 8.2 WSW | 245 14.1 W | 278 72.2 60.1
9/5/26 - 0940 70.1 20.7 15 10.2 WSW | 244 16.9 SW | 231 71.4 60.1
9/5/26 - 0930 69.8 16.1 13 7.7 WSW | 243 12.8 SW | 227 71.1 60.1
9/5/26 - 0920 69.5 14.3 12 8.8 WSW | 238 12.6 WSW | 247 70.2 60.1
9/5/26 - 0910 69.2 15.0 12 7.3 SW | 233 13.0 SW | 222 69.9 60.1
9/5/26 - 0900 68.8 14.0 12 8.2 SW | 230 12.3 SW | 217 69.1 60.1
9/5/26 - 0850 68.6 16.0 13 6.8 WSW | 238 11.0 SW | 231 69.1 60.1
9/5/26 - 0840 68.2 13.4 12 7.6 WSW | 246 12.2 WSW | 248 68.3 60.1
9/5/26 - 0830 68.0 14.0 12 6.1 WSW | 248 9.2 WSW | 258 68.2 60.1
9/5/26 - 0820 67.7 13.3 12 6.7 WSW | 247 9.1 SW | 235 68.0 60.1
9/5/26 - 0810 67.6 12.8 12 5.4 WSW | 239 8.1 WSW | 242 67.8 60.1
9/5/26 - 0800 67.3 11.4 11 4.6 WSW | 242 6.9 WSW | 252 67.4 60.1
9/5/26 - 0750 67.1 12.1 12 2.6 WSW | 244 4.2 WSW | 258 67.3 60.1
9/5/26 - 0740 66.4 12.4 12 2.0 WSW | 258 4.6 WNW | 286 66.8 60.1
9/5/26 - 0730 65.7 14.4 14 2.7 WNW | 283 4.7 WNW | 284 66.0 60.1
9/5/26 - 0720 65.3 14.2 14 3.0 W | 271 5.3 W | 272 65.6 60.1
9/5/26 - 0710 64.5 17.6 16 3.1 WNW | 283 4.6 WNW | 302 64.7 60.1
9/5/26 - 0700 64.2 21.3 19 3.5 WNW | 298 5.3 WNW | 300 64.4 60.1
9/5/26 - 0650 64.2 22.6 20 3.1 NW | 311 5.1 WNW | 294 64.4 60.1
9/5/26 - 0640 63.9 24.1 22 3.0 NW | 307 4.2 NW | 314 64.1 60.1
9/5/26 - 0630 63.3 25.8 24 3.8 NW | 308 5.2 NW | 310 63.6 60.1
9/5/26 - 0620 63.1 28.6 27 2.4 WNW | 293 3.3 WNW | 300 63.2 60.1
Max 75.5 59.3 95 16.4 - 25.8 - 76.5 65.1
Avg 68.7 45.9 49 7.9 - 12.8 - - -
Min 60.1 11.4 11 0.4 - 1.5 - 63.2 60.0